sensor_id;sensor_type;location;lat;lon;timestamp;P1;durP1;ratioP1;P2;durP2;ratioP2
9056;SDS011;4563;54.756;9.400;2023-04-06T00:00:10;3.10;;;2.80;;
9056;SDS011;4563;54.756;9.400;2023-04-06T00:02:38;4.57;;;3.30;;
9056;SDS011;4563;54.756;9.400;2023-04-06T00:05:07;5.83;;;2.73;;
9056;SDS011;4563;54.756;9.400;2023-04-06T00:07:34;2.83;;;2.60;;
9056;SDS011;4563;54.756;9.400;2023-04-06T00:10:01;3.70;;;2.70;;
9056;SDS011;4563;54.756;9.400;2023-04-06T00:12:30;3.30;;;2.20;;
9056;SDS011;4563;54.756;9.400;2023-04-06T00:14:57;2.63;;;2.43;;
9056;SDS011;4563;54.756;9.400;2023-04-06T00:17:24;5.17;;;3.10;;
9056;SDS011;4563;54.756;9.400;2023-04-06T00:19:51;3.07;;;2.60;;
9056;SDS011;4563;54.756;9.400;2023-04-06T00:22:18;3.87;;;2.67;;
9056;SDS011;4563;54.756;9.400;2023-04-06T00:24:45;3.17;;;2.83;;
9056;SDS011;4563;54.756;9.400;2023-04-06T00:27:11;3.73;;;2.93;;
9056;SDS011;4563;54.756;9.400;2023-04-06T00:29:40;3.13;;;2.80;;
9056;SDS011;4563;54.756;9.400;2023-04-06T00:32:07;4.60;;;2.63;;
9056;SDS011;4563;54.756;9.400;2023-04-06T00:34:35;3.43;;;2.33;;
9056;SDS011;4563;54.756;9.400;2023-04-06T00:37:01;4.93;;;2.87;;
9056;SDS011;4563;54.756;9.400;2023-04-06T00:39:28;3.10;;;2.67;;
9056;SDS011;4563;54.756;9.400;2023-04-06T00:41:55;4.03;;;2.93;;
9056;SDS011;4563;54.756;9.400;2023-04-06T00:44:22;3.17;;;2.13;;
9056;SDS011;4563;54.756;9.400;2023-04-06T00:46:51;3.00;;;2.13;;
9056;SDS011;4563;54.756;9.400;2023-04-06T00:49:18;3.00;;;2.07;;
9056;SDS011;4563;54.756;9.400;2023-04-06T00:51:45;4.80;;;2.53;;
9056;SDS011;4563;54.756;9.400;2023-04-06T00:54:12;3.33;;;2.70;;
9056;SDS011;4563;54.756;9.400;2023-04-06T00:56:39;4.10;;;2.37;;
9056;SDS011;4563;54.756;9.400;2023-04-06T00:59:07;9.93;;;2.50;;
9056;SDS011;4563;54.756;9.400;2023-04-06T01:01:34;5.47;;;1.97;;
9056;SDS011;4563;54.756;9.400;2023-04-06T01:04:02;3.07;;;2.10;;
9056;SDS011;4563;54.756;9.400;2023-04-06T01:06:29;3.07;;;1.80;;
9056;SDS011;4563;54.756;9.400;2023-04-06T01:08:56;2.80;;;1.70;;
9056;SDS011;4563;54.756;9.400;2023-04-06T01:11:23;2.63;;;2.07;;
9056;SDS011;4563;54.756;9.400;2023-04-06T01:13:51;2.90;;;2.20;;
9056;SDS011;4563;54.756;9.400;2023-04-06T01:16:18;2.77;;;2.00;;
9056;SDS011;4563;54.756;9.400;2023-04-06T01:18:45;2.87;;;2.00;;
9056;SDS011;4563;54.756;9.400;2023-04-06T01:21:13;2.60;;;1.80;;
9056;SDS011;4563;54.756;9.400;2023-04-06T01:23:43;3.23;;;2.00;;
9056;SDS011;4563;54.756;9.400;2023-04-06T01:26:11;3.27;;;2.10;;
9056;SDS011;4563;54.756;9.400;2023-04-06T01:28:45;4.33;;;1.87;;
9056;SDS011;4563;54.756;9.400;2023-04-06T01:31:11;5.03;;;1.60;;
9056;SDS011;4563;54.756;9.400;2023-04-06T01:33:38;2.10;;;2.00;;
9056;SDS011;4563;54.756;9.400;2023-04-06T01:36:05;1.93;;;1.70;;
9056;SDS011;4563;54.756;9.400;2023-04-06T01:38:33;1.77;;;1.67;;
9056;SDS011;4563;54.756;9.400;2023-04-06T01:41:01;2.57;;;2.13;;
9056;SDS011;4563;54.756;9.400;2023-04-06T01:43:28;3.63;;;1.90;;
9056;SDS011;4563;54.756;9.400;2023-04-06T01:45:55;3.10;;;1.87;;
9056;SDS011;4563;54.756;9.400;2023-04-06T01:48:21;4.87;;;2.00;;
9056;SDS011;4563;54.756;9.400;2023-04-06T01:50:48;2.47;;;1.70;;
9056;SDS011;4563;54.756;9.400;2023-04-06T01:53:16;2.70;;;1.67;;
9056;SDS011;4563;54.756;9.400;2023-04-06T01:55:42;5.93;;;1.83;;
9056;SDS011;4563;54.756;9.400;2023-04-06T01:58:11;2.50;;;2.30;;
9056;SDS011;4563;54.756;9.400;2023-04-06T02:00:38;2.50;;;2.30;;
9056;SDS011;4563;54.756;9.400;2023-04-06T02:03:05;2.00;;;1.47;;
9056;SDS011;4563;54.756;9.400;2023-04-06T02:05:33;4.17;;;2.00;;
9056;SDS011;4563;54.756;9.400;2023-04-06T02:08:03;3.60;;;2.17;;
9056;SDS011;4563;54.756;9.400;2023-04-06T02:10:30;2.33;;;2.10;;
9056;SDS011;4563;54.756;9.400;2023-04-06T02:12:57;2.97;;;1.63;;
9056;SDS011;4563;54.756;9.400;2023-04-06T02:15:25;2.63;;;1.50;;
9056;SDS011;4563;54.756;9.400;2023-04-06T02:17:53;3.67;;;1.93;;
9056;SDS011;4563;54.756;9.400;2023-04-06T02:20:20;4.37;;;2.00;;
9056;SDS011;4563;54.756;9.400;2023-04-06T02:22:47;2.50;;;1.83;;
9056;SDS011;4563;54.756;9.400;2023-04-06T02:25:14;3.83;;;2.30;;
9056;SDS011;4563;54.756;9.400;2023-04-06T02:27:41;1.97;;;1.87;;
9056;SDS011;4563;54.756;9.400;2023-04-06T02:30:08;2.10;;;1.90;;
9056;SDS011;4563;54.756;9.400;2023-04-06T02:32:37;4.73;;;2.17;;
9056;SDS011;4563;54.756;9.400;2023-04-06T02:35:04;2.20;;;2.00;;
9056;SDS011;4563;54.756;9.400;2023-04-06T02:37:31;3.47;;;2.33;;
9056;SDS011;4563;54.756;9.400;2023-04-06T02:39:58;3.17;;;2.20;;
9056;SDS011;4563;54.756;9.400;2023-04-06T02:42:25;2.17;;;1.97;;
9056;SDS011;4563;54.756;9.400;2023-04-06T02:44:52;2.90;;;2.20;;
9056;SDS011;4563;54.756;9.400;2023-04-06T02:47:19;2.37;;;2.10;;
9056;SDS011;4563;54.756;9.400;2023-04-06T02:49:47;2.30;;;1.87;;
9056;SDS011;4563;54.756;9.400;2023-04-06T02:52:14;2.17;;;1.97;;
9056;SDS011;4563;54.756;9.400;2023-04-06T02:54:42;2.77;;;1.70;;
9056;SDS011;4563;54.756;9.400;2023-04-06T02:57:09;4.93;;;2.30;;
9056;SDS011;4563;54.756;9.400;2023-04-06T02:59:36;4.63;;;2.53;;
9056;SDS011;4563;54.756;9.400;2023-04-06T03:02:03;2.83;;;2.20;;
9056;SDS011;4563;54.756;9.400;2023-04-06T03:04:30;2.17;;;1.73;;
9056;SDS011;4563;54.756;9.400;2023-04-06T03:06:58;3.83;;;2.10;;
9056;SDS011;4563;54.756;9.400;2023-04-06T03:09:25;3.17;;;2.17;;
9056;SDS011;4563;54.756;9.400;2023-04-06T03:11:53;5.90;;;2.20;;
9056;SDS011;4563;54.756;9.400;2023-04-06T03:14:20;3.80;;;2.20;;
9056;SDS011;4563;54.756;9.400;2023-04-06T03:16:47;5.53;;;2.37;;
9056;SDS011;4563;54.756;9.400;2023-04-06T03:19:15;2.47;;;2.00;;
9056;SDS011;4563;54.756;9.400;2023-04-06T03:21:42;3.17;;;2.03;;
9056;SDS011;4563;54.756;9.400;2023-04-06T03:24:10;2.93;;;2.17;;
9056;SDS011;4563;54.756;9.400;2023-04-06T03:26:37;3.53;;;2.10;;
9056;SDS011;4563;54.756;9.400;2023-04-06T03:29:04;4.87;;;2.37;;
9056;SDS011;4563;54.756;9.400;2023-04-06T03:31:31;6.27;;;3.67;;
9056;SDS011;4563;54.756;9.400;2023-04-06T03:33:58;9.03;;;5.43;;
9056;SDS011;4563;54.756;9.400;2023-04-06T03:36:25;6.03;;;3.53;;
9056;SDS011;4563;54.756;9.400;2023-04-06T03:38:52;3.13;;;2.47;;
9056;SDS011;4563;54.756;9.400;2023-04-06T03:41:20;2.90;;;2.60;;
9056;SDS011;4563;54.756;9.400;2023-04-06T03:43:47;2.60;;;2.00;;
9056;SDS011;4563;54.756;9.400;2023-04-06T03:46:14;4.57;;;2.17;;
9056;SDS011;4563;54.756;9.400;2023-04-06T03:48:41;3.20;;;2.80;;
9056;SDS011;4563;54.756;9.400;2023-04-06T03:51:08;3.83;;;2.27;;
9056;SDS011;4563;54.756;9.400;2023-04-06T03:53:35;2.40;;;2.20;;
9056;SDS011;4563;54.756;9.400;2023-04-06T03:56:03;4.07;;;2.20;;
9056;SDS011;4563;54.756;9.400;2023-04-06T03:58:31;4.27;;;2.17;;
9056;SDS011;4563;54.756;9.400;2023-04-06T04:00:58;3.87;;;2.33;;
9056;SDS011;4563;54.756;9.400;2023-04-06T04:03:25;4.37;;;1.70;;
9056;SDS011;4563;54.756;9.400;2023-04-06T04:05:53;3.03;;;1.97;;
9056;SDS011;4563;54.756;9.400;2023-04-06T04:08:20;4.10;;;2.37;;
9056;SDS011;4563;54.756;9.400;2023-04-06T04:10:47;3.77;;;2.43;;
9056;SDS011;4563;54.756;9.400;2023-04-06T04:13:14;4.63;;;2.13;;
9056;SDS011;4563;54.756;9.400;2023-04-06T04:15:42;6.77;;;2.37;;
9056;SDS011;4563;54.756;9.400;2023-04-06T04:18:09;3.73;;;1.80;;
9056;SDS011;4563;54.756;9.400;2023-04-06T04:20:36;2.43;;;2.23;;
9056;SDS011;4563;54.756;9.400;2023-04-06T04:23:02;2.97;;;2.40;;
9056;SDS011;4563;54.756;9.400;2023-04-06T04:25:29;4.93;;;2.30;;
9056;SDS011;4563;54.756;9.400;2023-04-06T04:27:56;4.50;;;2.40;;
9056;SDS011;4563;54.756;9.400;2023-04-06T04:30:23;3.97;;;2.60;;
9056;SDS011;4563;54.756;9.400;2023-04-06T04:32:51;6.07;;;2.67;;
9056;SDS011;4563;54.756;9.400;2023-04-06T04:35:18;4.93;;;2.63;;
9056;SDS011;4563;54.756;9.400;2023-04-06T04:37:45;3.90;;;2.43;;
9056;SDS011;4563;54.756;9.400;2023-04-06T04:40:12;3.87;;;2.20;;
9056;SDS011;4563;54.756;9.400;2023-04-06T04:42:39;7.13;;;3.00;;
9056;SDS011;4563;54.756;9.400;2023-04-06T04:45:06;5.67;;;2.83;;
9056;SDS011;4563;54.756;9.400;2023-04-06T04:47:33;6.17;;;3.00;;
9056;SDS011;4563;54.756;9.400;2023-04-06T04:50:02;5.03;;;3.33;;
9056;SDS011;4563;54.756;9.400;2023-04-06T04:52:29;3.77;;;2.40;;
9056;SDS011;4563;54.756;9.400;2023-04-06T04:54:56;3.07;;;2.57;;
9056;SDS011;4563;54.756;9.400;2023-04-06T04:57:22;5.60;;;2.60;;
9056;SDS011;4563;54.756;9.400;2023-04-06T04:59:49;7.00;;;2.83;;
9056;SDS011;4563;54.756;9.400;2023-04-06T05:02:16;6.57;;;2.87;;
9056;SDS011;4563;54.756;9.400;2023-04-06T05:04:43;4.90;;;2.50;;
9056;SDS011;4563;54.756;9.400;2023-04-06T05:07:11;3.23;;;2.67;;
9056;SDS011;4563;54.756;9.400;2023-04-06T05:09:40;5.63;;;2.30;;
9056;SDS011;4563;54.756;9.400;2023-04-06T05:12:07;3.90;;;2.67;;
9056;SDS011;4563;54.756;9.400;2023-04-06T05:14:35;7.27;;;3.07;;
9056;SDS011;4563;54.756;9.400;2023-04-06T05:17:02;6.70;;;3.00;;
9056;SDS011;4563;54.756;9.400;2023-04-06T05:19:30;4.00;;;2.90;;
9056;SDS011;4563;54.756;9.400;2023-04-06T05:21:57;4.13;;;2.80;;
9056;SDS011;4563;54.756;9.400;2023-04-06T05:24:25;5.87;;;3.27;;
9056;SDS011;4563;54.756;9.400;2023-04-06T05:26:52;6.27;;;2.77;;
9056;SDS011;4563;54.756;9.400;2023-04-06T05:29:19;5.47;;;3.07;;
9056;SDS011;4563;54.756;9.400;2023-04-06T05:31:46;2.83;;;2.50;;
9056;SDS011;4563;54.756;9.400;2023-04-06T05:34:13;5.10;;;3.23;;
9056;SDS011;4563;54.756;9.400;2023-04-06T05:36:40;5.03;;;3.53;;
9056;SDS011;4563;54.756;9.400;2023-04-06T05:39:07;4.40;;;3.20;;
9056;SDS011;4563;54.756;9.400;2023-04-06T05:41:35;5.43;;;3.53;;
9056;SDS011;4563;54.756;9.400;2023-04-06T05:44:02;6.23;;;3.83;;
9056;SDS011;4563;54.756;9.400;2023-04-06T05:46:29;5.50;;;3.73;;
9056;SDS011;4563;54.756;9.400;2023-04-06T05:48:56;11.00;;;4.80;;
9056;SDS011;4563;54.756;9.400;2023-04-06T05:51:23;5.10;;;3.80;;
9056;SDS011;4563;54.756;9.400;2023-04-06T05:53:50;11.77;;;4.20;;
9056;SDS011;4563;54.756;9.400;2023-04-06T05:56:17;8.80;;;4.00;;
9056;SDS011;4563;54.756;9.400;2023-04-06T05:58:45;10.77;;;3.60;;
9056;SDS011;4563;54.756;9.400;2023-04-06T06:01:12;8.60;;;4.70;;
9056;SDS011;4563;54.756;9.400;2023-04-06T06:03:39;6.17;;;3.90;;
9056;SDS011;4563;54.756;9.400;2023-04-06T06:06:06;6.87;;;4.40;;
9056;SDS011;4563;54.756;9.400;2023-04-06T06:08:33;6.67;;;4.57;;
9056;SDS011;4563;54.756;9.400;2023-04-06T06:11:00;11.23;;;5.10;;
9056;SDS011;4563;54.756;9.400;2023-04-06T06:13:28;9.90;;;4.90;;
9056;SDS011;4563;54.756;9.400;2023-04-06T06:15:57;8.50;;;4.67;;
9056;SDS011;4563;54.756;9.400;2023-04-06T06:18:24;6.80;;;4.40;;
9056;SDS011;4563;54.756;9.400;2023-04-06T06:20:51;7.73;;;4.67;;
9056;SDS011;4563;54.756;9.400;2023-04-06T06:23:18;8.07;;;4.97;;
9056;SDS011;4563;54.756;9.400;2023-04-06T06:25:44;5.10;;;4.23;;
9056;SDS011;4563;54.756;9.400;2023-04-06T06:28:11;9.57;;;6.40;;
9056;SDS011;4563;54.756;9.400;2023-04-06T06:30:39;5.97;;;4.60;;
9056;SDS011;4563;54.756;9.400;2023-04-06T06:33:08;8.27;;;4.97;;
9056;SDS011;4563;54.756;9.400;2023-04-06T06:35:34;6.83;;;4.67;;
9056;SDS011;4563;54.756;9.400;2023-04-06T06:38:01;7.97;;;5.00;;
9056;SDS011;4563;54.756;9.400;2023-04-06T06:40:28;8.67;;;5.23;;
9056;SDS011;4563;54.756;9.400;2023-04-06T06:42:55;11.43;;;5.00;;
9056;SDS011;4563;54.756;9.400;2023-04-06T06:45:22;6.70;;;4.30;;
9056;SDS011;4563;54.756;9.400;2023-04-06T06:47:50;7.93;;;4.87;;
9056;SDS011;4563;54.756;9.400;2023-04-06T06:50:18;9.33;;;5.70;;
9056;SDS011;4563;54.756;9.400;2023-04-06T06:52:45;10.30;;;4.57;;
9056;SDS011;4563;54.756;9.400;2023-04-06T06:55:12;6.37;;;5.13;;
9056;SDS011;4563;54.756;9.400;2023-04-06T06:57:40;7.20;;;5.10;;
9056;SDS011;4563;54.756;9.400;2023-04-06T07:00:07;12.83;;;5.80;;
9056;SDS011;4563;54.756;9.400;2023-04-06T07:02:36;12.80;;;5.30;;
9056;SDS011;4563;54.756;9.400;2023-04-06T07:05:03;7.13;;;4.80;;
9056;SDS011;4563;54.756;9.400;2023-04-06T07:07:32;8.87;;;5.87;;
9056;SDS011;4563;54.756;9.400;2023-04-06T07:09:59;8.20;;;5.30;;
9056;SDS011;4563;54.756;9.400;2023-04-06T07:12:26;7.40;;;5.63;;
9056;SDS011;4563;54.756;9.400;2023-04-06T07:14:53;7.60;;;4.93;;
9056;SDS011;4563;54.756;9.400;2023-04-06T07:17:20;9.83;;;5.03;;
9056;SDS011;4563;54.756;9.400;2023-04-06T07:19:48;7.33;;;5.47;;
9056;SDS011;4563;54.756;9.400;2023-04-06T07:22:14;10.03;;;7.13;;
9056;SDS011;4563;54.756;9.400;2023-04-06T07:24:43;7.40;;;5.10;;
9056;SDS011;4563;54.756;9.400;2023-04-06T07:27:09;8.40;;;5.53;;
9056;SDS011;4563;54.756;9.400;2023-04-06T07:29:36;5.93;;;5.33;;
9056;SDS011;4563;54.756;9.400;2023-04-06T07:32:03;6.57;;;4.70;;
9056;SDS011;4563;54.756;9.400;2023-04-06T07:34:30;10.77;;;5.27;;
9056;SDS011;4563;54.756;9.400;2023-04-06T07:36:57;7.77;;;5.03;;
9056;SDS011;4563;54.756;9.400;2023-04-06T07:39:25;9.17;;;4.60;;
9056;SDS011;4563;54.756;9.400;2023-04-06T07:41:54;8.00;;;4.40;;
9056;SDS011;4563;54.756;9.400;2023-04-06T07:44:21;11.10;;;4.57;;
9056;SDS011;4563;54.756;9.400;2023-04-06T07:46:48;6.97;;;4.47;;
9056;SDS011;4563;54.756;9.400;2023-04-06T07:49:15;6.97;;;4.53;;
9056;SDS011;4563;54.756;9.400;2023-04-06T07:51:41;4.40;;;4.03;;
9056;SDS011;4563;54.756;9.400;2023-04-06T07:54:08;4.87;;;3.87;;
9056;SDS011;4563;54.756;9.400;2023-04-06T07:56:35;5.33;;;3.70;;
9056;SDS011;4563;54.756;9.400;2023-04-06T07:59:03;8.47;;;4.40;;
9056;SDS011;4563;54.756;9.400;2023-04-06T08:01:30;5.23;;;4.00;;
9056;SDS011;4563;54.756;9.400;2023-04-06T08:03:57;6.50;;;3.83;;
9056;SDS011;4563;54.756;9.400;2023-04-06T08:06:27;6.10;;;4.23;;
9056;SDS011;4563;54.756;9.400;2023-04-06T08:08:54;8.00;;;4.23;;
9056;SDS011;4563;54.756;9.400;2023-04-06T08:11:20;4.93;;;4.17;;
9056;SDS011;4563;54.756;9.400;2023-04-06T08:13:47;7.50;;;4.13;;
9056;SDS011;4563;54.756;9.400;2023-04-06T08:16:16;7.57;;;4.63;;
9056;SDS011;4563;54.756;9.400;2023-04-06T08:18:43;4.83;;;4.33;;
9056;SDS011;4563;54.756;9.400;2023-04-06T08:21:10;6.73;;;4.73;;
9056;SDS011;4563;54.756;9.400;2023-04-06T08:23:37;9.30;;;4.50;;
9056;SDS011;4563;54.756;9.400;2023-04-06T08:26:04;4.27;;;3.90;;
9056;SDS011;4563;54.756;9.400;2023-04-06T08:28:34;5.83;;;3.70;;
9056;SDS011;4563;54.756;9.400;2023-04-06T08:31:03;5.93;;;4.27;;
9056;SDS011;4563;54.756;9.400;2023-04-06T08:33:32;6.30;;;3.73;;
9056;SDS011;4563;54.756;9.400;2023-04-06T08:36:06;4.43;;;3.70;;
9056;SDS011;4563;54.756;9.400;2023-04-06T08:38:37;5.97;;;4.00;;
9056;SDS011;4563;54.756;9.400;2023-04-06T08:41:08;3.73;;;3.43;;
9056;SDS011;4563;54.756;9.400;2023-04-06T08:43:38;7.00;;;3.70;;
9056;SDS011;4563;54.756;9.400;2023-04-06T08:46:09;5.67;;;3.30;;
9056;SDS011;4563;54.756;9.400;2023-04-06T08:48:40;9.83;;;3.57;;
9056;SDS011;4563;54.756;9.400;2023-04-06T08:51:07;4.60;;;3.50;;
9056;SDS011;4563;54.756;9.400;2023-04-06T08:53:35;3.97;;;3.60;;
9056;SDS011;4563;54.756;9.400;2023-04-06T08:56:02;3.77;;;3.40;;
9056;SDS011;4563;54.756;9.400;2023-04-06T08:58:32;7.20;;;3.83;;
9056;SDS011;4563;54.756;9.400;2023-04-06T09:01:02;8.30;;;4.77;;
9056;SDS011;4563;54.756;9.400;2023-04-06T09:03:33;8.07;;;4.53;;
9056;SDS011;4563;54.756;9.400;2023-04-06T09:06:04;5.43;;;4.33;;
9056;SDS011;4563;54.756;9.400;2023-04-06T09:08:32;9.20;;;5.87;;
9056;SDS011;4563;54.756;9.400;2023-04-06T09:10:59;10.40;;;5.50;;
9056;SDS011;4563;54.756;9.400;2023-04-06T09:13:27;9.43;;;5.70;;
9056;SDS011;4563;54.756;9.400;2023-04-06T09:16:00;10.37;;;4.77;;
9056;SDS011;4563;54.756;9.400;2023-04-06T09:18:29;4.03;;;3.57;;
9056;SDS011;4563;54.756;9.400;2023-04-06T09:20:57;5.63;;;4.77;;
9056;SDS011;4563;54.756;9.400;2023-04-06T09:23:26;7.17;;;4.93;;
9056;SDS011;4563;54.756;9.400;2023-04-06T09:26:04;4.07;;;3.60;;
9056;SDS011;4563;54.756;9.400;2023-04-06T09:28:40;4.87;;;3.53;;
9056;SDS011;4563;54.756;9.400;2023-04-06T09:31:08;5.00;;;3.30;;
9056;SDS011;4563;54.756;9.400;2023-04-06T09:33:36;4.37;;;2.87;;
9056;SDS011;4563;54.756;9.400;2023-04-06T09:36:04;3.87;;;3.23;;
9056;SDS011;4563;54.756;9.400;2023-04-06T09:38:33;4.13;;;3.40;;
9056;SDS011;4563;54.756;9.400;2023-04-06T09:41:00;7.43;;;4.07;;
9056;SDS011;4563;54.756;9.400;2023-04-06T09:43:27;8.03;;;4.17;;
9056;SDS011;4563;54.756;9.400;2023-04-06T09:45:55;5.10;;;3.20;;
9056;SDS011;4563;54.756;9.400;2023-04-06T09:48:22;13.53;;;4.73;;
9056;SDS011;4563;54.756;9.400;2023-04-06T09:50:51;5.83;;;4.37;;
9056;SDS011;4563;54.756;9.400;2023-04-06T09:53:23;6.40;;;4.90;;
9056;SDS011;4563;54.756;9.400;2023-04-06T09:55:58;10.30;;;5.00;;
9056;SDS011;4563;54.756;9.400;2023-04-06T09:58:31;5.00;;;4.57;;
9056;SDS011;4563;54.756;9.400;2023-04-06T10:01:02;5.13;;;4.63;;
9056;SDS011;4563;54.756;9.400;2023-04-06T10:03:36;9.47;;;5.27;;
9056;SDS011;4563;54.756;9.400;2023-04-06T10:06:12;6.00;;;5.10;;
9056;SDS011;4563;54.756;9.400;2023-04-06T10:08:41;5.07;;;4.20;;
9056;SDS011;4563;54.756;9.400;2023-04-06T10:11:10;6.30;;;3.93;;
9056;SDS011;4563;54.756;9.400;2023-04-06T10:13:38;6.70;;;4.33;;
9056;SDS011;4563;54.756;9.400;2023-04-06T10:16:05;7.10;;;5.03;;
9056;SDS011;4563;54.756;9.400;2023-04-06T10:18:33;10.50;;;4.10;;
9056;SDS011;4563;54.756;9.400;2023-04-06T10:21:01;8.00;;;4.63;;
9056;SDS011;4563;54.756;9.400;2023-04-06T10:23:33;7.47;;;4.70;;
9056;SDS011;4563;54.756;9.400;2023-04-06T10:26:02;3.70;;;3.23;;
9056;SDS011;4563;54.756;9.400;2023-04-06T10:28:32;8.53;;;3.93;;
9056;SDS011;4563;54.756;9.400;2023-04-06T10:31:01;5.47;;;4.43;;
9056;SDS011;4563;54.756;9.400;2023-04-06T10:33:31;6.20;;;3.93;;
9056;SDS011;4563;54.756;9.400;2023-04-06T10:35:58;6.47;;;3.50;;
9056;SDS011;4563;54.756;9.400;2023-04-06T10:38:36;5.00;;;3.03;;
9056;SDS011;4563;54.756;9.400;2023-04-06T10:41:05;2.73;;;2.33;;
9056;SDS011;4563;54.756;9.400;2023-04-06T10:43:34;5.90;;;2.57;;
9056;SDS011;4563;54.756;9.400;2023-04-06T10:46:02;4.50;;;2.13;;
9056;SDS011;4563;54.756;9.400;2023-04-06T10:48:37;4.30;;;1.83;;
9056;SDS011;4563;54.756;9.400;2023-04-06T10:51:07;4.70;;;2.47;;
9056;SDS011;4563;54.756;9.400;2023-04-06T10:53:35;3.07;;;2.70;;
9056;SDS011;4563;54.756;9.400;2023-04-06T10:56:03;2.83;;;2.43;;
9056;SDS011;4563;54.756;9.400;2023-04-06T10:58:36;2.37;;;1.90;;
9056;SDS011;4563;54.756;9.400;2023-04-06T11:01:03;1.87;;;1.77;;
9056;SDS011;4563;54.756;9.400;2023-04-06T11:03:31;2.27;;;1.87;;
9056;SDS011;4563;54.756;9.400;2023-04-06T11:05:59;1.90;;;1.80;;
9056;SDS011;4563;54.756;9.400;2023-04-06T11:08:26;2.50;;;1.80;;
9056;SDS011;4563;54.756;9.400;2023-04-06T11:11:03;1.90;;;1.80;;
9056;SDS011;4563;54.756;9.400;2023-04-06T11:13:42;2.03;;;1.93;;
9056;SDS011;4563;54.756;9.400;2023-04-06T11:16:14;1.87;;;1.77;;
9056;SDS011;4563;54.756;9.400;2023-04-06T11:18:48;1.87;;;1.77;;
9056;SDS011;4563;54.756;9.400;2023-04-06T11:21:16;4.00;;;2.40;;
9056;SDS011;4563;54.756;9.400;2023-04-06T11:23:43;1.97;;;1.87;;
9056;SDS011;4563;54.756;9.400;2023-04-06T11:26:10;4.07;;;2.00;;
9056;SDS011;4563;54.756;9.400;2023-04-06T11:28:38;1.97;;;1.87;;
9056;SDS011;4563;54.756;9.400;2023-04-06T11:31:06;2.00;;;1.90;;
9056;SDS011;4563;54.756;9.400;2023-04-06T11:33:36;5.10;;;2.50;;
9056;SDS011;4563;54.756;9.400;2023-04-06T11:36:04;2.97;;;1.80;;
9056;SDS011;4563;54.756;9.400;2023-04-06T11:38:32;1.53;;;1.43;;
9056;SDS011;4563;54.756;9.400;2023-04-06T11:40:59;2.47;;;2.10;;
9056;SDS011;4563;54.756;9.400;2023-04-06T11:43:27;2.27;;;2.07;;
9056;SDS011;4563;54.756;9.400;2023-04-06T11:46:01;1.93;;;1.83;;
9056;SDS011;4563;54.756;9.400;2023-04-06T11:48:30;2.17;;;1.60;;
9056;SDS011;4563;54.756;9.400;2023-04-06T11:50:58;2.87;;;2.27;;
9056;SDS011;4563;54.756;9.400;2023-04-06T11:53:26;3.30;;;3.07;;
9056;SDS011;4563;54.756;9.400;2023-04-06T11:55:54;4.07;;;3.00;;
9056;SDS011;4563;54.756;9.400;2023-04-06T11:58:21;5.23;;;3.03;;
9056;SDS011;4563;54.756;9.400;2023-04-06T12:00:48;4.50;;;4.10;;
9056;SDS011;4563;54.756;9.400;2023-04-06T12:03:15;4.60;;;4.20;;
9056;SDS011;4563;54.756;9.400;2023-04-06T12:05:43;7.37;;;4.43;;
9056;SDS011;4563;54.756;9.400;2023-04-06T12:08:11;5.93;;;2.83;;
9056;SDS011;4563;54.756;9.400;2023-04-06T12:10:38;3.83;;;2.03;;
9056;SDS011;4563;54.756;9.400;2023-04-06T12:13:05;1.90;;;1.80;;
9056;SDS011;4563;54.756;9.400;2023-04-06T12:15:31;3.83;;;3.43;;
9056;SDS011;4563;54.756;9.400;2023-04-06T12:17:58;8.33;;;4.57;;
9056;SDS011;4563;54.756;9.400;2023-04-06T12:20:25;6.80;;;4.17;;
9056;SDS011;4563;54.756;9.400;2023-04-06T12:22:53;5.67;;;3.33;;
9056;SDS011;4563;54.756;9.400;2023-04-06T12:25:20;3.40;;;3.10;;
9056;SDS011;4563;54.756;9.400;2023-04-06T12:27:47;4.70;;;2.93;;
9056;SDS011;4563;54.756;9.400;2023-04-06T12:30:14;2.87;;;2.67;;
9056;SDS011;4563;54.756;9.400;2023-04-06T12:32:42;4.20;;;2.73;;
9056;SDS011;4563;54.756;9.400;2023-04-06T12:35:08;3.67;;;3.33;;
9056;SDS011;4563;54.756;9.400;2023-04-06T12:37:37;5.17;;;3.37;;
9056;SDS011;4563;54.756;9.400;2023-04-06T12:40:06;4.70;;;3.30;;
9056;SDS011;4563;54.756;9.400;2023-04-06T12:42:36;3.43;;;2.97;;
9056;SDS011;4563;54.756;9.400;2023-04-06T12:45:05;3.73;;;3.43;;
9056;SDS011;4563;54.756;9.400;2023-04-06T12:47:33;3.43;;;3.13;;
9056;SDS011;4563;54.756;9.400;2023-04-06T12:50:01;6.20;;;3.10;;
9056;SDS011;4563;54.756;9.400;2023-04-06T12:52:27;3.40;;;3.13;;
9056;SDS011;4563;54.756;9.400;2023-04-06T12:54:56;3.60;;;3.30;;
9056;SDS011;4563;54.756;9.400;2023-04-06T12:57:25;5.83;;;2.37;;
9056;SDS011;4563;54.756;9.400;2023-04-06T12:59:52;3.37;;;2.60;;
9056;SDS011;4563;54.756;9.400;2023-04-06T13:02:19;7.03;;;2.67;;
9056;SDS011;4563;54.756;9.400;2023-04-06T13:04:46;6.10;;;4.10;;
9056;SDS011;4563;54.756;9.400;2023-04-06T13:07:14;3.33;;;2.53;;
9056;SDS011;4563;54.756;9.400;2023-04-06T13:09:41;2.43;;;2.23;;
9056;SDS011;4563;54.756;9.400;2023-04-06T13:12:08;4.53;;;2.60;;
9056;SDS011;4563;54.756;9.400;2023-04-06T13:14:36;3.67;;;2.40;;
9056;SDS011;4563;54.756;9.400;2023-04-06T13:17:04;4.17;;;2.60;;
9056;SDS011;4563;54.756;9.400;2023-04-06T13:19:31;5.03;;;3.17;;
9056;SDS011;4563;54.756;9.400;2023-04-06T13:21:58;4.40;;;3.00;;
9056;SDS011;4563;54.756;9.400;2023-04-06T13:24:25;5.90;;;2.40;;
9056;SDS011;4563;54.756;9.400;2023-04-06T13:26:52;3.50;;;2.00;;
9056;SDS011;4563;54.756;9.400;2023-04-06T13:29:18;3.07;;;2.10;;
9056;SDS011;4563;54.756;9.400;2023-04-06T13:31:47;3.17;;;2.20;;
9056;SDS011;4563;54.756;9.400;2023-04-06T13:34:14;4.03;;;2.17;;
9056;SDS011;4563;54.756;9.400;2023-04-06T13:36:41;2.93;;;2.07;;
9056;SDS011;4563;54.756;9.400;2023-04-06T13:39:08;2.00;;;1.90;;
9056;SDS011;4563;54.756;9.400;2023-04-06T13:41:35;4.57;;;2.50;;
9056;SDS011;4563;54.756;9.400;2023-04-06T13:44:02;3.07;;;2.33;;
9056;SDS011;4563;54.756;9.400;2023-04-06T13:46:29;3.73;;;2.30;;
9056;SDS011;4563;54.756;9.400;2023-04-06T13:48:57;3.00;;;2.27;;
9056;SDS011;4563;54.756;9.400;2023-04-06T13:51:24;4.50;;;2.83;;
9056;SDS011;4563;54.756;9.400;2023-04-06T13:53:52;3.57;;;2.80;;
9056;SDS011;4563;54.756;9.400;2023-04-06T13:56:20;2.43;;;2.13;;
9056;SDS011;4563;54.756;9.400;2023-04-06T13:58:46;2.80;;;2.60;;
9056;SDS011;4563;54.756;9.400;2023-04-06T14:01:13;2.40;;;2.30;;
9056;SDS011;4563;54.756;9.400;2023-04-06T14:03:41;5.73;;;2.73;;
9056;SDS011;4563;54.756;9.400;2023-04-06T14:06:13;9.67;;;3.40;;
9056;SDS011;4563;54.756;9.400;2023-04-06T14:08:40;3.40;;;2.83;;
9056;SDS011;4563;54.756;9.400;2023-04-06T14:11:10;6.90;;;2.93;;
9056;SDS011;4563;54.756;9.400;2023-04-06T14:13:38;7.20;;;3.20;;
9056;SDS011;4563;54.756;9.400;2023-04-06T14:16:05;4.50;;;3.60;;
9056;SDS011;4563;54.756;9.400;2023-04-06T14:18:32;7.77;;;3.07;;
9056;SDS011;4563;54.756;9.400;2023-04-06T14:20:59;2.73;;;2.30;;
9056;SDS011;4563;54.756;9.400;2023-04-06T14:23:28;2.93;;;2.30;;
9056;SDS011;4563;54.756;9.400;2023-04-06T14:26:00;5.67;;;2.23;;
9056;SDS011;4563;54.756;9.400;2023-04-06T14:28:29;3.00;;;2.50;;
9056;SDS011;4563;54.756;9.400;2023-04-06T14:30:56;3.20;;;2.60;;
9056;SDS011;4563;54.756;9.400;2023-04-06T14:33:23;3.97;;;2.37;;
9056;SDS011;4563;54.756;9.400;2023-04-06T14:35:50;3.23;;;3.00;;
9056;SDS011;4563;54.756;9.400;2023-04-06T14:38:16;2.70;;;2.50;;
9056;SDS011;4563;54.756;9.400;2023-04-06T14:40:45;4.30;;;2.53;;
9056;SDS011;4563;54.756;9.400;2023-04-06T14:43:11;3.90;;;2.70;;
9056;SDS011;4563;54.756;9.400;2023-04-06T14:45:38;3.17;;;2.80;;
9056;SDS011;4563;54.756;9.400;2023-04-06T14:48:05;3.10;;;2.80;;
9056;SDS011;4563;54.756;9.400;2023-04-06T14:50:33;2.47;;;2.27;;
9056;SDS011;4563;54.756;9.400;2023-04-06T14:53:00;3.00;;;2.77;;
9056;SDS011;4563;54.756;9.400;2023-04-06T14:55:27;6.43;;;2.47;;
9056;SDS011;4563;54.756;9.400;2023-04-06T14:57:55;3.10;;;2.40;;
9056;SDS011;4563;54.756;9.400;2023-04-06T15:00:22;5.93;;;3.53;;
9056;SDS011;4563;54.756;9.400;2023-04-06T15:02:49;6.43;;;3.77;;
9056;SDS011;4563;54.756;9.400;2023-04-06T15:05:16;2.90;;;2.70;;
9056;SDS011;4563;54.756;9.400;2023-04-06T15:07:43;3.57;;;2.33;;
9056;SDS011;4563;54.756;9.400;2023-04-06T15:10:09;3.33;;;3.03;;
9056;SDS011;4563;54.756;9.400;2023-04-06T15:12:37;5.17;;;2.57;;
9056;SDS011;4563;54.756;9.400;2023-04-06T15:15:06;6.00;;;4.47;;
9056;SDS011;4563;54.756;9.400;2023-04-06T15:17:33;2.83;;;2.17;;